<?xml version="1.0" encoding="UTF-8" standalone="no" ?>
<gpx xmlns="http://www.topografix.com/GPX/1/1" xmlns:xsi="http://www.w3.org/2001/XMLSchema-instance" xsi:schemaLocation="http://www.topografix.com/GPX/1/1 http://www.topografix.com/GPX/1/1/gpx.xsd" version="1.1" creator="VisuGPX - https://www.visugpx.com">
  <metadata>
    <name>RoscoffBatz7</name>
  </metadata>
  <trk>
    <name><![CDATA[RoscoffBatz7_1]]></name>
    <extensions>
      <line xmlns="http://www.topografix.com/GPX/gpx_style/0/2">
        <color>0000FF</color>
        <width>4</width>
      </line>
    </extensions>
    <trkseg>
      <trkpt lat="48.72514" lon="-3.98457">
        <ele>7.9746551513672</ele>
      </trkpt>
      <trkpt lat="48.72517" lon="-3.98439">
        <ele>7.6884179115295</ele>
      </trkpt>
      <trkpt lat="48.72518" lon="-3.98428">
        <ele>7.824038028717</ele>
      </trkpt>
      <trkpt lat="48.7252" lon="-3.98401">
        <ele>8.4504995346069</ele>
      </trkpt>
      <trkpt lat="48.7252" lon="-3.98368">
        <ele>9.099757194519</ele>
      </trkpt>
      <trkpt lat="48.72521" lon="-3.98343">
        <ele>9.2160472869873</ele>
      </trkpt>
      <trkpt lat="48.72522" lon="-3.98336">
        <ele>9.2732248306274</ele>
      </trkpt>
      <trkpt lat="48.72525" lon="-3.98334">
        <ele>9.3549346923828</ele>
      </trkpt>
      <trkpt lat="48.7253" lon="-3.9833">
        <ele>9.4140014648438</ele>
      </trkpt>
      <trkpt lat="48.72543" lon="-3.98326">
        <ele>9.2119693756104</ele>
      </trkpt>
      <trkpt lat="48.72549" lon="-3.98323">
        <ele>9.0319023132324</ele>
      </trkpt>
      <trkpt lat="48.72555" lon="-3.98312">
        <ele>8.2739315032959</ele>
      </trkpt>
      <trkpt lat="48.72559" lon="-3.98301">
        <ele>7.6635408401489</ele>
      </trkpt>
      <trkpt lat="48.72563" lon="-3.9829">
        <ele>7.4900031089783</ele>
      </trkpt>
      <trkpt lat="48.72568" lon="-3.98274">
        <ele>7.172297000885</ele>
      </trkpt>
      <trkpt lat="48.72554" lon="-3.98267">
        <ele>6.6535840034485</ele>
      </trkpt>
      <trkpt lat="48.72541" lon="-3.98264">
        <ele>6.4255681037903</ele>
      </trkpt>
      <trkpt lat="48.72533" lon="-3.98263">
        <ele>6.3781790733337</ele>
      </trkpt>
      <trkpt lat="48.72541" lon="-3.98244">
        <ele>5.6033139228821</ele>
      </trkpt>
      <trkpt lat="48.72544" lon="-3.98239">
        <ele>5.5822649002075</ele>
      </trkpt>
      <trkpt lat="48.72546" lon="-3.98237">
        <ele>5.7625665664673</ele>
      </trkpt>
      <trkpt lat="48.72548" lon="-3.98235">
        <ele>6.0313000679016</ele>
      </trkpt>
      <trkpt lat="48.72552" lon="-3.98233">
        <ele>6.0987420082092</ele>
      </trkpt>
      <trkpt lat="48.7256" lon="-3.98232">
        <ele>6.074399471283</ele>
      </trkpt>
      <trkpt lat="48.72569" lon="-3.9823">
        <ele>5.8061351776123</ele>
      </trkpt>
      <trkpt lat="48.72576" lon="-3.98228">
        <ele>5.6212167739868</ele>
      </trkpt>
      <trkpt lat="48.72602" lon="-3.98218">
        <ele>6.2172946929932</ele>
      </trkpt>
      <trkpt lat="48.72641" lon="-3.982">
        <ele>5.8219180107117</ele>
      </trkpt>
      <trkpt lat="48.72646" lon="-3.98196">
        <ele>5.9697728157043</ele>
      </trkpt>
      <trkpt lat="48.7265" lon="-3.98192">
        <ele>6.1453642845154</ele>
      </trkpt>
      <trkpt lat="48.72652" lon="-3.98185">
        <ele>6.0643606185913</ele>
      </trkpt>
      <trkpt lat="48.72662" lon="-3.98149">
        <ele>5.3520221710205</ele>
      </trkpt>
      <trkpt lat="48.72666" lon="-3.98138">
        <ele>5.1279168128967</ele>
      </trkpt>
      <trkpt lat="48.72672" lon="-3.98119">
        <ele>5.4882702827454</ele>
      </trkpt>
      <trkpt lat="48.72677" lon="-3.98131">
        <ele>1</ele>
        <time>2021-04-26T11:54:45Z</time>
      </trkpt>
      <trkpt lat="48.72681" lon="-3.9813">
        <ele>1</ele>
        <time>2021-04-26T11:54:46Z</time>
      </trkpt>
      <trkpt lat="48.73193" lon="-3.98253">
        <time>2021-04-26T11:56:18Z</time>
      </trkpt>
      <trkpt lat="48.73201" lon="-3.98233">
        <time>2021-04-26T11:56:21Z</time>
      </trkpt>
      <trkpt lat="48.73215" lon="-3.98254">
        <time>2021-04-26T11:56:24Z</time>
      </trkpt>
      <trkpt lat="48.73365" lon="-3.98881">
        <time>2021-04-26T11:57:42Z</time>
      </trkpt>
      <trkpt lat="48.73544" lon="-3.99421">
        <time>2021-04-26T11:58:53Z</time>
      </trkpt>
      <trkpt lat="48.73634" lon="-3.9989">
        <time>2021-04-26T11:59:51Z</time>
      </trkpt>
      <trkpt lat="48.73643" lon="-4.00521">
        <time>2021-04-26T12:01:05Z</time>
      </trkpt>
      <trkpt lat="48.73661" lon="-4.00797">
        <time>2021-04-26T12:01:37Z</time>
      </trkpt>
      <trkpt lat="48.73682" lon="-4.00882">
        <time>2021-04-26T12:01:48Z</time>
      </trkpt>
      <trkpt lat="48.73778" lon="-4.00892">
        <time>2021-04-26T12:02:05Z</time>
      </trkpt>
      <trkpt lat="48.7385" lon="-4.00891">
        <time>2021-04-26T12:02:18Z</time>
      </trkpt>
      <trkpt lat="48.74009" lon="-4.00883">
        <time>2021-04-26T12:02:46Z</time>
      </trkpt>
      <trkpt lat="48.74043" lon="-4.00879">
        <time>2021-04-26T12:02:52Z</time>
      </trkpt>
      <trkpt lat="48.74073" lon="-4.00867">
        <ele>1</ele>
        <time>2021-04-26T12:02:58Z</time>
      </trkpt>
      <trkpt lat="48.7407" lon="-4.00855">
        <ele>1.4</ele>
        <time>2021-04-26T12:02:59Z</time>
      </trkpt>
      <trkpt lat="48.74081" lon="-4.00845">
        <ele>2.6</ele>
        <time>2021-04-26T12:03:02Z</time>
      </trkpt>
      <trkpt lat="48.74084" lon="-4.00837">
        <ele>3.6</ele>
        <time>2021-04-26T12:03:03Z</time>
      </trkpt>
      <trkpt lat="48.74085" lon="-4.00828">
        <ele>4.2</ele>
        <time>2021-04-26T12:03:04Z</time>
      </trkpt>
      <trkpt lat="48.74084" lon="-4.00837">
        <ele>3.6</ele>
        <time>2021-04-26T12:03:05Z</time>
      </trkpt>
      <trkpt lat="48.74081" lon="-4.00845">
        <ele>2.6</ele>
        <time>2021-04-26T12:03:06Z</time>
      </trkpt>
      <trkpt lat="48.7407" lon="-4.00855">
        <ele>1.4</ele>
        <time>2021-04-26T12:03:08Z</time>
      </trkpt>
      <trkpt lat="48.74073" lon="-4.00867">
        <ele>1</ele>
        <time>2021-04-26T12:03:10Z</time>
      </trkpt>
      <trkpt lat="48.74043" lon="-4.00879">
        <time>2021-04-26T12:03:15Z</time>
      </trkpt>
      <trkpt lat="48.74009" lon="-4.00883">
        <time>2021-04-26T12:03:21Z</time>
      </trkpt>
      <trkpt lat="48.7385" lon="-4.00891">
        <time>2021-04-26T12:03:50Z</time>
      </trkpt>
      <trkpt lat="48.73778" lon="-4.00892">
        <time>2021-04-26T12:04:02Z</time>
      </trkpt>
      <trkpt lat="48.73682" lon="-4.00882">
        <time>2021-04-26T12:04:20Z</time>
      </trkpt>
      <trkpt lat="48.73661" lon="-4.00797">
        <time>2021-04-26T12:04:30Z</time>
      </trkpt>
      <trkpt lat="48.73643" lon="-4.00521">
        <time>2021-04-26T12:05:03Z</time>
      </trkpt>
      <trkpt lat="48.73634" lon="-3.9989">
        <time>2021-04-26T12:06:17Z</time>
      </trkpt>
      <trkpt lat="48.73544" lon="-3.99421">
        <time>2021-04-26T12:07:14Z</time>
      </trkpt>
      <trkpt lat="48.73365" lon="-3.98881">
        <time>2021-04-26T12:08:25Z</time>
      </trkpt>
      <trkpt lat="48.73215" lon="-3.98254">
        <time>2021-04-26T12:09:43Z</time>
      </trkpt>
      <trkpt lat="48.73201" lon="-3.98233">
        <time>2021-04-26T12:09:47Z</time>
      </trkpt>
      <trkpt lat="48.73193" lon="-3.98253">
        <time>2021-04-26T12:09:50Z</time>
      </trkpt>
      <trkpt lat="48.72681" lon="-3.9813">
        <ele>1</ele>
        <time>2021-04-26T12:11:22Z</time>
      </trkpt>
      <trkpt lat="48.72675" lon="-3.98131">
        <ele>1</ele>
        <time>2021-04-26T12:11:23Z</time>
      </trkpt>
      <trkpt lat="48.72672" lon="-3.98119">
        <ele>5.4882702827454</ele>
      </trkpt>
      <trkpt lat="48.72666" lon="-3.98138">
        <ele>5.1279168128967</ele>
      </trkpt>
      <trkpt lat="48.72662" lon="-3.98149">
        <ele>5.3520221710205</ele>
      </trkpt>
      <trkpt lat="48.72652" lon="-3.98185">
        <ele>6.0643606185913</ele>
      </trkpt>
      <trkpt lat="48.7265" lon="-3.98192">
        <ele>6.1453642845154</ele>
      </trkpt>
      <trkpt lat="48.72646" lon="-3.98196">
        <ele>5.9697728157043</ele>
      </trkpt>
      <trkpt lat="48.72641" lon="-3.982">
        <ele>5.8219180107117</ele>
      </trkpt>
      <trkpt lat="48.72602" lon="-3.98218">
        <ele>6.2172946929932</ele>
      </trkpt>
      <trkpt lat="48.72576" lon="-3.98228">
        <ele>5.6212167739868</ele>
      </trkpt>
      <trkpt lat="48.72569" lon="-3.9823">
        <ele>5.8061351776123</ele>
      </trkpt>
      <trkpt lat="48.7256" lon="-3.98232">
        <ele>6.074399471283</ele>
      </trkpt>
      <trkpt lat="48.72552" lon="-3.98233">
        <ele>6.0987420082092</ele>
      </trkpt>
      <trkpt lat="48.72548" lon="-3.98235">
        <ele>6.0313000679016</ele>
      </trkpt>
      <trkpt lat="48.72546" lon="-3.98237">
        <ele>5.7625665664673</ele>
      </trkpt>
      <trkpt lat="48.72544" lon="-3.98239">
        <ele>5.5822649002075</ele>
      </trkpt>
      <trkpt lat="48.72541" lon="-3.98244">
        <ele>5.6033139228821</ele>
      </trkpt>
      <trkpt lat="48.72533" lon="-3.98263">
        <ele>6.3781790733337</ele>
      </trkpt>
      <trkpt lat="48.72523" lon="-3.98261">
        <ele>6.5877432823181</ele>
      </trkpt>
      <trkpt lat="48.72511" lon="-3.98258">
        <ele>6.4338545799255</ele>
      </trkpt>
      <trkpt lat="48.72511" lon="-3.98267">
        <ele>6.7069997787476</ele>
      </trkpt>
      <trkpt lat="48.7251" lon="-3.98272">
        <ele>6.733642578125</ele>
      </trkpt>
      <trkpt lat="48.72509" lon="-3.98275">
        <ele>6.8010854721069</ele>
      </trkpt>
      <trkpt lat="48.72511" lon="-3.98282">
        <ele>7.180299282074</ele>
      </trkpt>
      <trkpt lat="48.72513" lon="-3.98289">
        <ele>7.7219853401184</ele>
      </trkpt>
      <trkpt lat="48.72513" lon="-3.98301">
        <ele>8.5332317352295</ele>
      </trkpt>
      <trkpt lat="48.72513" lon="-3.98312">
        <ele>9.066535949707</ele>
      </trkpt>
      <trkpt lat="48.72513" lon="-3.98328">
        <ele>9.5067644119263</ele>
      </trkpt>
      <trkpt lat="48.72514" lon="-3.98336">
        <ele>9.6115884780884</ele>
      </trkpt>
      <trkpt lat="48.72522" lon="-3.98336">
        <ele>9.2732248306274</ele>
      </trkpt>
      <trkpt lat="48.72521" lon="-3.98343">
        <ele>9.2160472869873</ele>
      </trkpt>
      <trkpt lat="48.7252" lon="-3.98368">
        <ele>9.099757194519</ele>
      </trkpt>
      <trkpt lat="48.7252" lon="-3.98401">
        <ele>8.4504995346069</ele>
      </trkpt>
      <trkpt lat="48.72518" lon="-3.98428">
        <ele>7.824038028717</ele>
      </trkpt>
      <trkpt lat="48.72517" lon="-3.98439">
        <ele>7.6884179115295</ele>
      </trkpt>
      <trkpt lat="48.72514" lon="-3.98457">
        <ele>7.9746551513672</ele>
      </trkpt>
    </trkseg>
  </trk>
</gpx>